Terminal Aerodrome Forecast
Issued by NWS Wilmington, OH

Current Version | Previous Version | Text Only | Print | Product List | Glossary Off
Versions: 1 2 3 4 5 6 7 8 9 10 11 12 13 14 15 16 17 18 19 20 21 22 23

000
FTUS41 KILN 181139
TAFILN
TAF
KILN 181139Z 1812/1912 28005KT P6SM OVC020
      TEMPO 1812/1815 OVC015
     FM181500 14008KT P6SM FEW015 SCT250
     FM190900 18010KT 2SM -SHRA BR OVC005=

USA.gov is the U.S. government's official web portal to all federal, state and local government web resources and services.